Time;durP1;ratioP1;P1;durP2;ratioP2;P2;SDS_P1;SDS_P2;PMS_P1;PMS_P2;Temp;Humidity;BMP_temperature;BMP_pressure;BME280_temperature;BME280_humidity;BME280_pressure;Samples;Min_cycle;Max_cycle;Signal;HPM_P1;HPM_P2
2021/08/06 00:00:51;;;;;;;1.77;0.80;;;17.40;99.90;;;;;;5053132;28;20554;-81
2021/08/06 00:03:18;;;;;;;2.95;0.77;;;17.40;99.90;;;;;;5053859;28;20041;-76
2021/08/06 00:05:48;;;;;;;3.13;0.88;;;17.40;99.90;;;;;;5053660;28;20132;-79
2021/08/06 00:08:15;;;;;;;1.77;0.77;;;17.40;99.90;;;;;;5053572;28;20132;-80
2021/08/06 00:10:42;;;;;;;2.10;0.80;;;17.40;99.90;;;;;;5053494;28;20127;-80
2021/08/06 00:13:09;;;;;;;1.63;0.80;;;17.30;99.90;;;;;;5053519;28;20455;-80
2021/08/06 00:15:36;;;;;;;2.70;0.85;;;17.30;99.90;;;;;;5055302;28;20072;-80
2021/08/06 00:18:04;;;;;;;2.05;0.75;;;17.30;99.90;;;;;;5065226;28;20045;-80
2021/08/06 00:20:31;;;;;;;1.90;0.75;;;17.30;99.90;;;;;;5053733;28;20077;-81
2021/08/06 00:23:00;;;;;;;1.75;0.70;;;17.30;99.90;;;;;;5053356;28;20470;-80
2021/08/06 00:25:27;;;;;;;1.63;0.70;;;17.20;99.90;;;;;;5053475;28;20482;-79
2021/08/06 00:27:54;;;;;;;1.95;0.75;;;17.30;99.90;;;;;;5053281;28;20053;-81
2021/08/06 00:30:21;;;;;;;1.77;0.70;;;17.30;99.90;;;;;;5052773;28;20348;-79
2021/08/06 00:32:48;;;;;;;2.80;0.80;;;17.20;99.90;;;;;;5052853;28;20128;-80
2021/08/06 00:35:15;;;;;;;1.65;0.70;;;17.20;99.90;;;;;;5052790;28;20490;-80
2021/08/06 00:37:42;;;;;;;2.42;0.70;;;17.20;99.90;;;;;;5053474;28;20068;-80
2021/08/06 00:40:12;;;;;;;1.48;0.55;;;17.20;99.90;;;;;;5053016;28;20052;-80
2021/08/06 00:42:39;;;;;;;2.47;0.90;;;17.20;99.90;;;;;;5053431;28;20692;-80
2021/08/06 00:45:08;;;;;;;5.13;1.10;;;17.20;99.90;;;;;;5052758;28;20128;-78
2021/08/06 00:47:36;;;;;;;2.15;0.88;;;17.20;99.90;;;;;;5052210;28;20044;-79
2021/08/06 00:50:05;;;;;;;1.92;0.75;;;17.20;99.90;;;;;;5053262;28;20378;-79
2021/08/06 00:52:32;;;;;;;2.53;0.80;;;17.20;99.90;;;;;;5045451;28;20127;-79
2021/08/06 00:54:59;;;;;;;1.77;0.80;;;17.20;99.90;;;;;;5053186;28;20076;-78
2021/08/06 00:57:28;;;;;;;2.63;0.80;;;17.10;99.90;;;;;;5052700;28;20128;-80
2021/08/06 00:59:55;;;;;;;1.40;0.70;;;17.10;99.90;;;;;;5052128;28;20481;-77
2021/08/06 01:02:26;;;;;;;2.08;0.77;;;17.00;99.90;;;;;;5052595;28;20098;-80
2021/08/06 01:05:01;;;;;;;1.92;0.90;;;17.10;99.90;;;;;;5053023;28;20124;-79
2021/08/06 01:07:37;;;;;;;4.35;0.90;;;17.00;99.90;;;;;;5052946;28;20134;-80
2021/08/06 01:10:08;;;;;;;2.10;0.63;;;17.00;99.90;;;;;;5052762;28;20056;-79
2021/08/06 01:12:42;;;;;;;3.13;0.90;;;17.00;99.90;;;;;;5046007;28;20123;-79
2021/08/06 01:15:12;;;;;;;1.67;0.80;;;17.00;99.90;;;;;;5052648;28;20406;-77
2021/08/06 01:17:43;;;;;;;1.70;0.70;;;17.00;99.90;;;;;;5052639;28;20295;-80
2021/08/06 01:20:15;;;;;;;1.45;0.70;;;17.00;99.90;;;;;;5052847;28;20049;-80
2021/08/06 01:22:49;;;;;;;2.88;0.82;;;16.90;99.90;;;;;;5055052;28;20041;-80
2021/08/06 01:25:39;;;;;;;2.28;0.80;;;17.00;99.90;;;;;;5054810;28;20128;-81
2021/08/06 01:28:06;;;;;;;1.58;0.75;;;17.00;99.90;;;;;;5054523;28;20049;-80
2021/08/06 01:30:34;;;;;;;1.50;0.60;;;17.00;99.90;;;;;;5052890;28;20149;-79
2021/08/06 01:33:01;;;;;;;2.03;0.70;;;17.00;99.90;;;;;;5052582;28;20045;-77
2021/08/06 01:35:28;;;;;;;1.42;0.70;;;16.90;99.90;;;;;;5053538;28;20562;-81
2021/08/06 01:37:55;;;;;;;1.50;0.68;;;17.00;99.90;;;;;;5056434;28;20141;-78
2021/08/06 01:40:22;;;;;;;1.92;0.90;;;16.90;99.90;;;;;;5056693;28;20056;-78
2021/08/06 01:42:59;;;;;;;3.97;0.90;;;16.90;99.90;;;;;;5056448;28;20505;-79
2021/08/06 01:45:32;;;;;;;2.05;0.75;;;16.80;99.90;;;;;;5056514;28;20080;-80
2021/08/06 01:48:00;;;;;;;2.75;1.00;;;16.70;99.90;;;;;;5056865;28;20128;-75
2021/08/06 01:50:33;;;;;;;2.10;0.80;;;16.70;99.90;;;;;;5056272;28;20045;-80
2021/08/06 01:53:04;;;;;;;1.87;0.70;;;16.70;99.90;;;;;;5058548;28;20052;-78
2021/08/06 01:55:39;;;;;;;1.35;0.68;;;16.70;99.90;;;;;;5069528;28;20091;-79
2021/08/06 01:58:10;;;;;;;2.53;0.70;;;16.70;99.90;;;;;;5058220;28;20049;-79
2021/08/06 02:00:38;;;;;;;1.80;0.80;;;16.70;99.90;;;;;;5060830;28;20124;-79
2021/08/06 02:03:07;;;;;;;2.53;0.77;;;16.70;99.90;;;;;;5060810;28;20109;-79
2021/08/06 02:05:35;;;;;;;1.88;0.85;;;16.70;99.90;;;;;;5060752;28;20571;-78
2021/08/06 02:08:04;;;;;;;2.28;0.90;;;16.70;99.90;;;;;;5057766;28;20123;-78
2021/08/06 02:10:31;;;;;;;2.35;0.75;;;16.70;99.90;;;;;;5048866;28;20136;-79
2021/08/06 02:12:59;;;;;;;2.30;1.08;;;16.60;99.90;;;;;;5057616;28;20104;-80
2021/08/06 02:15:27;;;;;;;3.83;0.80;;;16.60;99.90;;;;;;5059676;28;20502;-79
2021/08/06 02:17:55;;;;;;;1.98;0.80;;;16.60;99.90;;;;;;5059029;28;20128;-79
2021/08/06 02:20:24;;;;;;;2.42;0.90;;;16.60;99.90;;;;;;5056455;28;20063;-80
2021/08/06 02:22:53;;;;;;;3.10;0.70;;;16.70;99.90;;;;;;5056561;28;20140;-79
2021/08/06 02:25:23;;;;;;;2.97;0.80;;;16.70;99.90;;;;;;5056274;28;21785;-78
2021/08/06 02:27:51;;;;;;;2.95;0.90;;;16.70;99.90;;;;;;5056431;28;20477;-79
2021/08/06 02:30:21;;;;;;;2.20;0.90;;;16.70;99.90;;;;;;5056237;28;20053;-81
2021/08/06 02:32:50;;;;;;;2.53;0.88;;;16.70;99.90;;;;;;5056616;28;20049;-79
2021/08/06 02:35:17;;;;;;;3.13;1.05;;;16.70;99.90;;;;;;5055389;28;20056;-81
2021/08/06 02:37:46;;;;;;;2.10;0.80;;;16.70;99.90;;;;;;5056071;28;20152;-78
2021/08/06 02:40:14;;;;;;;1.98;0.80;;;16.70;99.90;;;;;;5055345;28;20044;-80
2021/08/06 02:42:42;;;;;;;2.30;0.85;;;16.70;99.90;;;;;;5055813;28;20052;-79
2021/08/06 02:45:11;;;;;;;1.90;0.80;;;16.70;99.90;;;;;;5055335;28;20494;-79
2021/08/06 02:47:38;;;;;;;1.88;0.93;;;16.70;99.90;;;;;;5055444;28;20044;-78
2021/08/06 02:50:08;;;;;;;3.13;0.90;;;16.70;99.90;;;;;;5055229;28;20051;-79
2021/08/06 02:52:35;;;;;;;1.92;0.80;;;16.70;99.90;;;;;;5056111;28;20124;-79
2021/08/06 02:55:02;;;;;;;2.13;0.90;;;16.70;99.90;;;;;;5055500;28;20049;-79
2021/08/06 02:57:29;;;;;;;3.92;1.10;;;16.80;99.90;;;;;;5055433;28;20546;-77
2021/08/06 02:59:57;;;;;;;2.30;0.80;;;16.70;99.90;;;;;;5055537;28;20044;-78
2021/08/06 03:02:46;;;;;;;2.80;0.90;;;16.80;99.90;;;;;;5062175;28;20064;-79
2021/08/06 03:05:14;;;;;;;3.00;1.35;;;16.70;99.90;;;;;;5058626;28;20132;-79
2021/08/06 03:07:48;;;;;;;2.60;0.90;;;16.70;99.90;;;;;;5053466;28;20132;-80
2021/08/06 03:10:18;;;;;;;1.98;0.82;;;16.70;99.90;;;;;;5052268;28;20136;-79
2021/08/06 03:12:46;;;;;;;3.75;0.70;;;16.60;99.90;;;;;;5053442;28;20483;-78
2021/08/06 03:15:13;;;;;;;1.88;0.90;;;16.60;99.90;;;;;;5052770;28;20052;-79
2021/08/06 03:17:42;;;;;;;3.50;0.93;;;16.60;99.90;;;;;;5052456;28;20100;-78
2021/08/06 03:20:11;;;;;;;2.63;1.20;;;16.50;99.90;;;;;;5052564;28;20048;-79
2021/08/06 03:22:40;;;;;;;2.80;0.90;;;16.40;99.90;;;;;;5052814;28;20049;-79
2021/08/06 03:25:10;;;;;;;1.95;0.80;;;16.40;99.90;;;;;;5052227;28;20135;-80
2021/08/06 03:27:37;;;;;;;2.67;0.90;;;16.40;99.90;;;;;;5052811;28;20129;-81
2021/08/06 03:30:07;;;;;;;2.95;1.10;;;16.30;99.90;;;;;;5051927;28;20561;-78
2021/08/06 03:32:35;;;;;;;3.22;0.90;;;16.30;99.90;;;;;;5045157;28;20128;-81
2021/08/06 03:35:02;;;;;;;2.97;1.23;;;16.20;99.90;;;;;;5051720;28;20175;-80
2021/08/06 03:37:29;;;;;;;4.20;1.00;;;16.20;99.90;;;;;;5052340;28;20123;-79
2021/08/06 03:39:57;;;;;;;2.88;1.00;;;16.20;99.90;;;;;;5052483;28;20132;-78
2021/08/06 03:42:24;;;;;;;2.20;1.10;;;16.10;99.90;;;;;;5052203;28;20044;-80
2021/08/06 03:44:51;;;;;;;2.80;1.27;;;16.10;99.90;;;;;;5052808;28;20087;-79
2021/08/06 03:47:18;;;;;;;2.50;1.23;;;16.10;99.90;;;;;;5052499;28;20137;-80
2021/08/06 03:49:46;;;;;;;4.53;1.30;;;16.10;99.90;;;;;;5052321;28;20049;-78
2021/08/06 03:52:13;;;;;;;4.43;1.00;;;16.10;99.90;;;;;;5058946;28;20108;-80
2021/08/06 03:54:40;;;;;;;4.05;0.95;;;16.20;99.90;;;;;;5063320;28;20049;-79
2021/08/06 03:57:09;;;;;;;2.88;1.10;;;16.10;99.90;;;;;;5060137;28;20517;-80
2021/08/06 03:59:36;;;;;;;2.30;1.05;;;16.20;99.90;;;;;;5056934;28;20146;-81
2021/08/06 04:02:04;;;;;;;3.78;1.20;;;16.20;99.90;;;;;;5062380;28;20482;-78
2021/08/06 04:04:31;;;;;;;3.67;1.08;;;16.20;99.90;;;;;;5046733;28;20120;-79
2021/08/06 04:06:58;;;;;;;3.13;1.17;;;16.20;99.90;;;;;;5054013;28;20127;-80
2021/08/06 04:09:25;;;;;;;2.33;1.20;;;16.20;99.90;;;;;;5053779;28;20149;-81
2021/08/06 04:11:52;;;;;;;4.53;1.38;;;16.20;99.90;;;;;;5053874;28;20467;-81
2021/08/06 04:14:20;;;;;;;3.03;1.20;;;16.20;99.90;;;;;;5053520;28;20127;-81
2021/08/06 04:16:48;;;;;;;2.47;1.00;;;16.20;99.90;;;;;;5053962;28;20076;-79
2021/08/06 04:19:15;;;;;;;4.55;1.10;;;16.20;99.90;;;;;;5053466;28;20128;-79
2021/08/06 04:21:43;;;;;;;2.65;1.13;;;16.20;99.90;;;;;;5053809;28;20052;-80
2021/08/06 04:24:10;;;;;;;3.50;1.08;;;16.20;99.90;;;;;;5053292;28;20069;-78
2021/08/06 04:26:37;;;;;;;3.65;1.30;;;16.30;99.90;;;;;;5054625;28;20128;-78
2021/08/06 04:29:04;;;;;;;4.10;1.35;;;16.30;99.90;;;;;;5053624;28;20469;-81
2021/08/06 04:31:33;;;;;;;3.28;1.38;;;16.30;99.90;;;;;;5045728;28;20131;-79
2021/08/06 04:34:00;;;;;;;2.80;1.20;;;16.30;99.90;;;;;;5052788;28;20585;-79
2021/08/06 04:36:27;;;;;;;3.08;1.17;;;16.40;99.90;;;;;;5051109;28;20519;-79
2021/08/06 04:38:54;;;;;;;3.95;1.30;;;16.40;99.90;;;;;;5054087;28;20139;-76
2021/08/06 04:41:21;;;;;;;3.38;1.60;;;16.40;99.90;;;;;;5055141;28;20485;-77
2021/08/06 04:43:48;;;;;;;2.53;1.20;;;16.50;99.90;;;;;;5055630;28;20110;-77
2021/08/06 04:46:15;;;;;;;2.47;1.15;;;16.50;99.90;;;;;;5055241;28;20132;-77
2021/08/06 04:48:43;;;;;;;2.90;1.23;;;16.60;99.90;;;;;;5055236;28;20132;-79
2021/08/06 04:51:10;;;;;;;3.17;1.10;;;16.60;99.90;;;;;;5055073;28;20258;-77
2021/08/06 04:53:37;;;;;;;2.90;1.00;;;16.60;99.90;;;;;;5055365;28;20047;-78
2021/08/06 04:56:05;;;;;;;2.40;1.10;;;16.70;99.90;;;;;;5055834;28;20047;-76
2021/08/06 04:58:32;;;;;;;2.85;1.20;;;16.70;99.90;;;;;;5054247;28;20128;-76
2021/08/06 05:00:59;;;;;;;3.30;1.40;;;16.70;99.90;;;;;;5053160;28;20471;-78
2021/08/06 05:03:26;;;;;;;3.40;1.40;;;16.80;99.90;;;;;;5053860;28;20132;-79
2021/08/06 05:05:54;;;;;;;3.67;1.50;;;16.80;99.90;;;;;;5053378;28;20489;-76
2021/08/06 05:08:21;;;;;;;3.83;1.60;;;16.80;99.90;;;;;;5053759;28;20447;-78
2021/08/06 05:10:48;;;;;;;2.85;1.40;;;16.70;99.90;;;;;;5052891;28;20566;-80
2021/08/06 05:13:15;;;;;;;3.72;1.40;;;16.70;99.90;;;;;;5053823;28;20128;-78
2021/08/06 05:15:42;;;;;;;2.70;1.55;;;16.60;99.90;;;;;;5053145;28;20120;-79
2021/08/06 05:18:09;;;;;;;4.85;1.80;;;16.50;99.90;;;;;;5053653;28;20128;-78
2021/08/06 05:20:36;;;;;;;4.57;1.77;;;16.50;99.90;;;;;;5053269;28;20132;-77
2021/08/06 05:23:05;;;;;;;6.07;1.85;;;16.40;99.90;;;;;;5052883;28;20047;-81
2021/08/06 05:25:33;;;;;;;3.80;1.77;;;16.20;99.90;;;;;;5053186;28;20441;-78
2021/08/06 05:28:00;;;;;;;3.05;1.50;;;16.20;99.90;;;;;;5053828;28;20124;-79
2021/08/06 05:30:27;;;;;;;3.60;1.50;;;16.10;99.90;;;;;;5053095;28;20152;-79
2021/08/06 05:32:54;;;;;;;4.25;1.90;;;16.00;99.90;;;;;;5053074;28;20084;-78
2021/08/06 05:35:21;;;;;;;5.70;1.77;;;16.00;99.90;;;;;;5052806;28;20136;-79
2021/08/06 05:37:48;;;;;;;4.18;1.98;;;16.00;99.90;;;;;;5052940;28;20076;-78
2021/08/06 05:40:16;;;;;;;3.72;1.70;;;16.00;99.90;;;;;;5053137;28;20083;-79
2021/08/06 05:42:43;;;;;;;5.22;1.90;;;16.10;99.90;;;;;;5053254;28;20406;-79
2021/08/06 05:45:11;;;;;;;3.28;1.70;;;16.00;99.90;;;;;;5052979;28;20041;-79
2021/08/06 05:47:46;;;;;;;4.38;1.77;;;16.10;99.90;;;;;;5052843;28;20073;-79
2021/08/06 05:50:16;;;;;;;3.55;1.52;;;16.20;99.90;;;;;;5053728;28;20049;-78
2021/08/06 05:52:44;;;;;;;4.47;1.42;;;16.20;99.90;;;;;;5055443;28;20139;-78
2021/08/06 05:55:12;;;;;;;4.60;1.70;;;16.20;99.90;;;;;;5054710;28;20080;-76
2021/08/06 05:57:40;;;;;;;3.38;1.63;;;16.20;99.90;;;;;;5054779;28;20072;-78
2021/08/06 06:00:10;;;;;;;3.70;1.77;;;16.30;99.90;;;;;;5054830;28;20059;-76
2021/08/06 06:02:38;;;;;;;3.80;1.70;;;16.30;99.90;;;;;;5053712;28;20048;-76
2021/08/06 06:05:07;;;;;;;2.88;1.27;;;16.40;99.90;;;;;;5052572;28;20444;-79
2021/08/06 06:07:45;;;;;;;3.03;1.48;;;16.40;99.90;;;;;;5052607;28;20132;-79
2021/08/06 06:10:13;;;;;;;3.60;1.60;;;16.50;99.90;;;;;;5057090;28;20112;-77
2021/08/06 06:12:41;;;;;;;3.17;1.60;;;16.50;99.90;;;;;;5064255;28;20049;-77
2021/08/06 06:15:10;;;;;;;3.53;1.60;;;16.60;99.90;;;;;;5057848;28;20077;-78
2021/08/06 06:17:37;;;;;;;2.90;1.40;;;16.70;99.90;;;;;;5054344;28;20124;-75
2021/08/06 06:20:05;;;;;;;3.10;1.27;;;16.70;99.90;;;;;;5052201;28;20049;-78
2021/08/06 06:22:33;;;;;;;3.42;1.30;;;16.80;99.90;;;;;;5055301;28;20464;-77
2021/08/06 06:25:00;;;;;;;3.03;1.60;;;16.80;99.90;;;;;;5056185;28;20052;-81
2021/08/06 06:27:28;;;;;;;3.42;1.40;;;16.90;99.90;;;;;;5056322;28;20471;-77
2021/08/06 06:29:56;;;;;;;3.30;1.60;;;17.00;99.90;;;;;;5056304;28;20049;-78
2021/08/06 06:32:23;;;;;;;2.85;1.40;;;17.00;99.90;;;;;;5055880;28;20550;-79
2021/08/06 06:34:50;;;;;;;2.58;1.27;;;17.00;99.90;;;;;;5054796;28;20136;-78
2021/08/06 06:37:17;;;;;;;2.72;1.40;;;17.00;99.90;;;;;;5055028;28;20124;-79
2021/08/06 06:39:44;;;;;;;3.50;1.45;;;17.10;99.90;;;;;;5055399;28;20156;-77
2021/08/06 06:42:11;;;;;;;3.67;1.50;;;17.10;99.90;;;;;;5056435;28;20049;-77
2021/08/06 06:44:39;;;;;;;3.10;1.63;;;17.20;99.90;;;;;;5056305;28;20056;-79
2021/08/06 06:47:07;;;;;;;2.55;1.30;;;17.20;99.90;;;;;;5056158;28;20108;-81
2021/08/06 06:49:34;;;;;;;3.15;1.40;;;17.20;99.90;;;;;;5055600;28;20052;-79
2021/08/06 06:52:01;;;;;;;3.33;1.50;;;17.30;99.90;;;;;;5061978;28;20108;-79
2021/08/06 06:54:28;;;;;;;3.50;1.52;;;17.40;99.90;;;;;;5067403;28;20068;-78
2021/08/06 06:56:55;;;;;;;3.05;1.60;;;17.40;99.90;;;;;;5066463;28;20072;-78
2021/08/06 06:59:22;;;;;;;5.00;1.65;;;17.50;99.90;;;;;;5066424;28;20072;-81
2021/08/06 07:01:49;;;;;;;4.15;1.50;;;17.60;99.90;;;;;;5066892;28;20060;-78
2021/08/06 07:04:17;;;;;;;5.25;1.50;;;17.60;99.90;;;;;;5056661;28;20076;-79
2021/08/06 07:06:44;;;;;;;3.58;1.30;;;17.70;99.90;;;;;;5056112;28;20128;-80
2021/08/06 07:09:11;;;;;;;3.38;1.50;;;17.70;99.90;;;;;;5056226;28;20133;-80
2021/08/06 07:11:38;;;;;;;3.03;1.60;;;17.80;99.90;;;;;;5055192;28;20053;-79
2021/08/06 07:14:05;;;;;;;3.95;1.67;;;17.90;99.90;;;;;;5055559;28;20132;-74
2021/08/06 07:16:33;;;;;;;3.38;1.73;;;18.00;99.90;;;;;;5054615;28;20450;-77
2021/08/06 07:19:00;;;;;;;3.13;1.42;;;18.10;99.90;;;;;;5055060;28;20141;-77
2021/08/06 07:21:28;;;;;;;3.25;1.52;;;18.10;99.90;;;;;;5055276;28;20132;-77
2021/08/06 07:23:55;;;;;;;2.28;1.30;;;18.20;99.90;;;;;;5054839;28;20045;-74
2021/08/06 07:26:22;;;;;;;3.65;1.30;;;18.30;99.90;;;;;;5055247;28;20052;-76
2021/08/06 07:28:49;;;;;;;3.10;1.20;;;18.30;99.90;;;;;;5055085;28;20140;-77
2021/08/06 07:31:16;;;;;;;2.63;1.10;;;18.40;99.90;;;;;;5054914;28;20136;-78
2021/08/06 07:33:43;;;;;;;2.58;1.25;;;18.40;99.90;;;;;;5054231;28;20045;-77
2021/08/06 07:36:10;;;;;;;2.97;1.25;;;18.50;99.90;;;;;;5054981;28;20516;-76
2021/08/06 07:38:39;;;;;;;2.78;1.20;;;18.60;99.90;;;;;;5055117;28;20136;-76
2021/08/06 07:41:06;;;;;;;2.78;1.25;;;18.50;99.90;;;;;;5055283;28;20487;-74
2021/08/06 07:43:33;;;;;;;3.53;1.20;;;18.60;99.90;;;;;;5054255;28;20045;-75
2021/08/06 07:46:00;;;;;;;3.22;1.30;;;18.60;99.90;;;;;;5054672;28;20132;-77
2021/08/06 07:48:27;;;;;;;3.67;1.33;;;18.60;99.90;;;;;;5056279;28;20131;-77
2021/08/06 07:50:54;;;;;;;6.28;1.40;;;18.60;99.90;;;;;;5060520;28;20132;-78
2021/08/06 07:53:21;;;;;;;3.63;1.40;;;18.70;99.90;;;;;;5060700;28;20079;-76
2021/08/06 07:55:52;;;;;;;3.20;1.50;;;18.70;99.90;;;;;;5060681;28;20091;-80
2021/08/06 07:58:19;;;;;;;2.90;1.27;;;18.70;99.90;;;;;;5063254;28;20056;-78
2021/08/06 08:00:47;;;;;;;3.00;1.33;;;18.70;99.90;;;;;;5061679;28;20072;-78
2021/08/06 08:03:14;;;;;;;2.58;1.35;;;18.70;99.90;;;;;;5055199;28;20131;-79
2021/08/06 08:05:41;;;;;;;2.60;1.20;;;18.70;99.90;;;;;;5057002;28;20132;-79
2021/08/06 08:08:08;;;;;;;3.15;1.25;;;18.80;99.90;;;;;;5059846;28;20131;-78
2021/08/06 08:10:35;;;;;;;3.35;1.30;;;18.80;99.90;;;;;;5055618;28;20132;-75
2021/08/06 08:13:04;;;;;;;3.05;1.40;;;18.90;99.90;;;;;;5054145;28;20486;-78
2021/08/06 08:15:31;;;;;;;3.38;1.30;;;19.00;99.90;;;;;;5054614;28;20071;-78
2021/08/06 08:17:58;;;;;;;2.85;1.40;;;19.10;99.90;;;;;;5054677;28;20462;-76
2021/08/06 08:20:25;;;;;;;3.22;1.27;;;19.10;99.90;;;;;;5054921;28;20499;-78
2021/08/06 08:22:52;;;;;;;2.70;1.33;;;19.20;99.90;;;;;;5054496;28;20581;-77
2021/08/06 08:25:19;;;;;;;2.97;1.30;;;19.20;99.90;;;;;;5054084;28;20124;-79
2021/08/06 08:27:46;;;;;;;3.03;1.10;;;19.20;99.90;;;;;;5054331;28;20561;-75
2021/08/06 08:30:15;;;;;;;2.83;1.30;;;19.30;99.90;;;;;;5053201;28;20136;-76
2021/08/06 08:32:42;;;;;;;3.20;1.10;;;19.30;99.90;;;;;;5054207;28;20076;-74
2021/08/06 08:35:10;;;;;;;2.60;1.25;;;19.40;99.90;;;;;;5053428;28;20135;-75
2021/08/06 08:37:37;;;;;;;3.17;1.27;;;19.40;99.90;;;;;;5053772;28;20052;-73
2021/08/06 08:40:06;;;;;;;2.50;1.00;;;19.40;99.90;;;;;;5053593;28;20055;-77
2021/08/06 08:42:33;;;;;;;2.80;1.10;;;19.40;99.90;;;;;;5054007;28;20131;-76
2021/08/06 08:45:02;;;;;;;5.70;1.40;;;19.40;99.80;;;;;;5053803;28;20133;-76
2021/08/06 08:47:34;;;;;;;2.65;1.02;;;19.30;99.90;;;;;;5051613;28;20556;-78
2021/08/06 08:50:05;;;;;;;3.92;1.10;;;19.30;98.70;;;;;;5051055;28;20041;-75
2021/08/06 08:52:33;;;;;;;2.40;0.90;;;19.20;99.40;;;;;;5051000;28;20128;-76
2021/08/06 08:55:00;;;;;;;2.85;0.90;;;19.20;99.10;;;;;;5053352;28;20136;-74
2021/08/06 08:57:27;;;;;;;2.95;1.08;;;19.10;99.40;;;;;;5054015;28;20147;-74
2021/08/06 08:59:55;;;;;;;2.00;0.90;;;19.10;99.80;;;;;;5049996;28;20467;-77
2021/08/06 09:02:24;;;;;;;3.10;1.00;;;19.10;99.60;;;;;;5050946;28;20049;-75
2021/08/06 09:05:08;;;;;;;3.47;0.90;;;19.10;99.50;;;;;;5050646;28;20052;-76
2021/08/06 09:07:35;;;;;;;2.67;1.00;;;19.10;99.50;;;;;;5050611;28;20055;-74
2021/08/06 09:10:12;;;;;;;2.25;1.00;;;19.10;99.70;;;;;;5050457;28;20045;-74
2021/08/06 09:12:53;;;;;;;2.55;0.90;;;19.10;99.70;;;;;;5050229;28;20539;-76
2021/08/06 09:15:45;;;;;;;3.95;1.13;;;19.10;99.90;;;;;;5050587;28;20103;-77
2021/08/06 09:18:37;;;;;;;2.30;0.90;;;19.20;99.90;;;;;;5050174;28;20128;-77
2021/08/06 09:21:08;;;;;;;3.25;1.10;;;19.30;99.90;;;;;;5048532;28;20127;-76
2021/08/06 09:23:39;;;;;;;2.78;0.80;;;19.40;99.80;;;;;;5050630;28;20219;-78
2021/08/06 09:26:07;;;;;;;2.47;0.75;;;19.50;97.60;;;;;;5049845;28;20135;-78
2021/08/06 09:28:35;;;;;;;3.33;0.90;;;19.60;97.50;;;;;;5050468;28;20167;-77
2021/08/06 09:31:16;;;;;;;2.17;0.80;;;19.70;96.50;;;;;;5050042;28;20073;-76
2021/08/06 09:33:43;;;;;;;2.25;0.90;;;19.90;96.30;;;;;;5050118;28;20140;-77
2021/08/06 09:36:12;;;;;;;2.90;0.77;;;20.00;95.80;;;;;;5049918;28;20048;-75
2021/08/06 09:38:40;;;;;;;1.83;0.73;;;20.10;95.30;;;;;;5049844;28;20045;-77
2021/08/06 09:41:07;;;;;;;2.97;0.80;;;20.20;95.00;;;;;;5049987;28;20044;-77
2021/08/06 09:43:34;;;;;;;1.48;0.73;;;20.40;94.60;;;;;;5050154;28;20140;-77
2021/08/06 09:46:01;;;;;;;2.13;0.80;;;20.40;93.60;;;;;;5049649;28;20052;-77
2021/08/06 09:48:30;;;;;;;2.72;0.90;;;20.40;93.60;;;;;;5049850;28;20057;-75
2021/08/06 09:50:57;;;;;;;2.67;0.90;;;20.50;93.10;;;;;;5049569;28;20048;-77
2021/08/06 09:53:26;;;;;;;3.08;0.90;;;20.50;92.80;;;;;;5049081;28;20418;-77
2021/08/06 09:55:54;;;;;;;2.97;0.90;;;20.50;93.10;;;;;;5049980;28;20462;-77
2021/08/06 09:58:23;;;;;;;2.00;0.70;;;20.50;92.70;;;;;;5051419;28;20542;-78
2021/08/06 10:00:55;;;;;;;2.35;0.80;;;20.40;93.30;;;;;;5052289;28;20041;-79
2021/08/06 10:03:28;;;;;;;2.33;0.90;;;20.40;93.40;;;;;;5052272;28;20095;-78
2021/08/06 10:06:10;;;;;;;3.08;0.90;;;20.40;92.70;;;;;;5047448;28;20467;-75
2021/08/06 10:08:38;;;;;;;1.92;0.80;;;20.40;93.40;;;;;;5052466;28;20467;-78
2021/08/06 10:11:05;;;;;;;1.98;0.80;;;20.40;93.50;;;;;;5052879;28;22003;-74
2021/08/06 10:13:33;;;;;;;3.25;0.73;;;20.40;92.10;;;;;;5052414;28;20037;-77
2021/08/06 10:16:00;;;;;;;2.30;0.80;;;20.50;92.60;;;;;;5052617;28;20049;-76
2021/08/06 10:18:28;;;;;;;2.35;1.00;;;20.50;92.20;;;;;;5051438;28;20041;-78
2021/08/06 10:20:55;;;;;;;1.92;0.80;;;20.60;92.50;;;;;;5052237;28;20465;-77
2021/08/06 10:23:23;;;;;;;2.95;0.80;;;20.60;91.80;;;;;;5053061;28;20047;-74
2021/08/06 10:25:51;;;;;;;1.67;0.73;;;20.60;92.10;;;;;;5052611;28;20124;-77
2021/08/06 10:28:20;;;;;;;2.28;0.77;;;20.60;91.50;;;;;;5052530;28;20045;-79
2021/08/06 10:30:47;;;;;;;3.15;0.75;;;20.50;91.40;;;;;;5051566;28;20569;-78
2021/08/06 10:33:20;;;;;;;1.88;0.70;;;20.50;91.90;;;;;;5051646;28;20053;-80
2021/08/06 10:35:50;;;;;;;2.72;0.88;;;20.40;92.20;;;;;;5051666;28;20410;-80
2021/08/06 10:38:35;;;;;;;2.05;0.80;;;20.40;92.50;;;;;;5051737;28;20144;-78
2021/08/06 10:41:14;;;;;;;2.50;0.85;;;20.30;92.50;;;;;;5052199;28;20049;-77
2021/08/06 10:44:04;;;;;;;3.55;0.95;;;20.30;92.60;;;;;;5045994;28;20049;-80
2021/08/06 10:47:02;;;;;;;2.53;0.85;;;20.20;92.80;;;;;;5048604;28;20044;-77
2021/08/06 10:49:31;;;;;;;1.90;0.80;;;20.30;93.00;;;;;;5052209;28;20103;-79
2021/08/06 10:52:19;;;;;;;4.40;1.10;;;20.30;93.00;;;;;;5051833;28;20048;-79
2021/08/06 10:54:49;;;;;;;2.65;0.95;;;20.30;93.10;;;;;;5052101;28;20045;-78
2021/08/06 10:57:28;;;;;;;5.78;1.38;;;20.30;93.30;;;;;;5051236;28;20049;-77
2021/08/06 10:59:56;;;;;;;3.53;1.10;;;20.40;93.50;;;;;;5052212;28;20455;-78
2021/08/06 11:02:51;;;;;;;3.03;0.98;;;20.40;93.50;;;;;;5051716;28;20132;-79
2021/08/06 11:05:43;;;;;;;3.85;0.90;;;20.50;93.20;;;;;;5051907;28;20060;-80
2021/08/06 11:08:46;;;;;;;2.67;1.10;;;20.50;93.20;;;;;;5051529;28;20075;-80
2021/08/06 11:11:51;;;;;;;3.03;1.10;;;20.50;93.40;;;;;;5050812;28;20037;-79
2021/08/06 11:15:03;;;;;;;3.13;0.90;;;20.60;93.40;;;;;;5044302;28;20107;-78
2021/08/06 11:17:45;;;;;;;2.78;0.90;;;20.70;93.20;;;;;;5051496;28;20037;-79
2021/08/06 11:20:18;;;;;;;3.65;1.20;;;20.80;93.00;;;;;;5051314;28;20083;-77
2021/08/06 11:22:48;;;;;;;1.65;0.75;;;20.90;92.70;;;;;;5053868;28;20045;-79
2021/08/06 11:25:22;;;;;;;2.53;0.85;;;21.00;92.70;;;;;;5053433;28;20102;-78
2021/08/06 11:27:51;;;;;;;2.67;0.90;;;21.10;92.40;;;;;;5053999;28;20052;-80
2021/08/06 11:30:21;;;;;;;3.92;0.90;;;21.10;92.30;;;;;;5051704;28;20458;-77
2021/08/06 11:32:56;;;;;;;3.55;0.95;;;21.10;91.90;;;;;;5051564;28;20044;-77
2021/08/06 11:35:24;;;;;;;2.35;0.93;;;21.10;91.50;;;;;;5051451;28;20123;-78
2021/08/06 11:37:55;;;;;;;2.78;0.80;;;21.20;91.30;;;;;;5050208;28;20549;-78
2021/08/06 11:40:24;;;;;;;4.22;1.00;;;21.20;90.80;;;;;;5051574;28;20403;-81
2021/08/06 11:42:52;;;;;;;4.10;0.95;;;21.20;90.50;;;;;;5051512;28;20144;-79
2021/08/06 11:45:25;;;;;;;2.78;1.00;;;21.20;90.50;;;;;;5051045;28;20055;-77
2021/08/06 11:47:54;;;;;;;3.58;0.98;;;21.10;90.50;;;;;;5046108;28;20139;-78
2021/08/06 11:50:40;;;;;;;2.90;1.00;;;21.10;90.40;;;;;;5050820;28;20148;-78
2021/08/06 11:53:14;;;;;;;5.65;1.10;;;21.20;90.60;;;;;;5051723;28;20136;-79
2021/08/06 11:55:42;;;;;;;2.75;0.80;;;21.20;91.00;;;;;;5051872;28;20051;-78
2021/08/06 11:58:10;;;;;;;2.63;0.90;;;21.30;90.90;;;;;;5050391;28;20582;-78
2021/08/06 12:00:39;;;;;;;2.15;0.60;;;21.30;90.50;;;;;;5050999;28;20132;-78
2021/08/06 12:03:13;;;;;;;3.30;1.05;;;21.30;89.70;;;;;;5050926;28;20063;-79
2021/08/06 12:05:42;;;;;;;1.98;0.80;;;21.40;89.80;;;;;;5031618;28;20155;-79
2021/08/06 12:08:23;;;;;;;2.58;0.82;;;21.40;90.10;;;;;;5037734;28;20094;-76
2021/08/06 12:10:54;;;;;;;3.05;1.00;;;21.50;90.10;;;;;;5044827;28;20435;-74
2021/08/06 12:13:25;;;;;;;6.15;1.25;;;21.50;88.90;;;;;;5050987;28;20059;-75
2021/08/06 12:16:06;;;;;;;2.35;0.90;;;21.60;88.00;;;;;;5048815;28;20470;-77
2021/08/06 12:18:33;;;;;;;3.90;0.82;;;21.70;89.30;;;;;;5044767;28;20052;-76
2021/08/06 12:21:04;;;;;;;3.67;1.20;;;21.70;85.70;;;;;;5050514;28;20052;-76
2021/08/06 12:23:32;;;;;;;3.28;1.00;;;21.80;87.20;;;;;;5049819;28;20081;-76
2021/08/06 12:26:13;;;;;;;2.90;0.90;;;21.90;86.30;;;;;;5045049;28;20049;-74
2021/08/06 12:28:44;;;;;;;3.53;1.02;;;22.00;85.40;;;;;;5034253;28;20099;-78
2021/08/06 12:31:22;;;;;;;2.25;0.85;;;22.10;86.90;;;;;;5044891;28;20481;-77
2021/08/06 12:34:05;;;;;;;2.25;0.70;;;22.20;87.30;;;;;;5054045;28;20051;-74
2021/08/06 12:36:33;;;;;;;3.50;0.95;;;22.30;87.70;;;;;;5052396;28;20049;-77
2021/08/06 12:39:11;;;;;;;3.13;1.20;;;22.40;86.80;;;;;;5053895;28;20137;-75
2021/08/06 12:41:39;;;;;;;2.55;0.80;;;22.50;86.90;;;;;;5053603;28;20135;-79
2021/08/06 12:44:23;;;;;;;2.40;1.00;;;22.50;86.70;;;;;;5053399;28;20127;-76
2021/08/06 12:47:07;;;;;;;;;;;22.60;86.70;;;;;;5053415;28;20056;-75
2021/08/06 12:49:37;;;;;;;2.83;1.02;;;22.70;86.60;;;;;;5053196;28;19921;-77
2021/08/06 12:52:09;;;;;;;3.45;0.93;;;22.80;85.20;;;;;;5052933;28;20477;-75
2021/08/06 12:54:43;;;;;;;2.72;0.90;;;22.80;84.20;;;;;;5053666;28;20095;-75
2021/08/06 12:57:11;;;;;;;2.55;0.90;;;22.90;85.20;;;;;;5053239;28;20136;-75
2021/08/06 12:59:43;;;;;;;2.97;0.90;;;23.00;82.80;;;;;;5053474;28;20124;-76
2021/08/06 13:02:21;;;;;;;3.15;0.90;;;23.10;81.40;;;;;;5054185;28;20055;-76